sensor_id;sensor_type;location;lat;lon;timestamp;temperature;humidity
33715;DHT22;20043;50.998;4.754;2023-04-29T00:01:56;12.70;99.90
33715;DHT22;20043;50.998;4.754;2023-04-29T00:04:24;12.90;99.90
33715;DHT22;20043;50.998;4.754;2023-04-29T00:06:50;12.90;99.90
33715;DHT22;20043;50.998;4.754;2023-04-29T00:09:16;13.00;99.90
33715;DHT22;20043;50.998;4.754;2023-04-29T00:11:41;12.70;99.90
33715;DHT22;20043;50.998;4.754;2023-04-29T00:14:07;12.70;99.90
33715;DHT22;20043;50.998;4.754;2023-04-29T00:16:32;12.80;99.90
33715;DHT22;20043;50.998;4.754;2023-04-29T00:18:58;12.80;99.90
33715;DHT22;20043;50.998;4.754;2023-04-29T00:21:24;12.90;99.90
33715;DHT22;20043;50.998;4.754;2023-04-29T00:23:52;12.90;99.90
33715;DHT22;20043;50.998;4.754;2023-04-29T00:26:17;12.90;99.90
33715;DHT22;20043;50.998;4.754;2023-04-29T00:28:43;12.90;99.90
33715;DHT22;20043;50.998;4.754;2023-04-29T00:31:09;12.90;99.90
33715;DHT22;20043;50.998;4.754;2023-04-29T00:33:35;12.90;99.90
33715;DHT22;20043;50.998;4.754;2023-04-29T00:36:01;12.90;99.90
33715;DHT22;20043;50.998;4.754;2023-04-29T00:38:27;12.90;99.90
33715;DHT22;20043;50.998;4.754;2023-04-29T00:40:53;13.00;99.90
33715;DHT22;20043;50.998;4.754;2023-04-29T00:43:19;12.90;99.90
33715;DHT22;20043;50.998;4.754;2023-04-29T00:45:45;12.90;99.90
33715;DHT22;20043;50.998;4.754;2023-04-29T00:48:11;12.90;99.90
33715;DHT22;20043;50.998;4.754;2023-04-29T00:50:39;12.80;99.90
33715;DHT22;20043;50.998;4.754;2023-04-29T00:53:05;12.90;99.90
33715;DHT22;20043;50.998;4.754;2023-04-29T00:55:32;13.00;99.90
33715;DHT22;20043;50.998;4.754;2023-04-29T00:57:58;12.90;99.90
33715;DHT22;20043;50.998;4.754;2023-04-29T01:00:25;12.90;99.90
33715;DHT22;20043;50.998;4.754;2023-04-29T01:02:52;12.90;99.90
33715;DHT22;20043;50.998;4.754;2023-04-29T01:05:19;12.80;99.90
33715;DHT22;20043;50.998;4.754;2023-04-29T01:08:12;12.70;99.90
33715;DHT22;20043;50.998;4.754;2023-04-29T01:10:48;12.70;99.90
33715;DHT22;20043;50.998;4.754;2023-04-29T01:13:45;12.70;99.90
33715;DHT22;20043;50.998;4.754;2023-04-29T01:16:24;12.70;99.90
33715;DHT22;20043;50.998;4.754;2023-04-29T01:18:57;12.70;99.90
33715;DHT22;20043;50.998;4.754;2023-04-29T01:21:25;12.80;99.90
33715;DHT22;20043;50.998;4.754;2023-04-29T01:23:52;12.80;99.90
33715;DHT22;20043;50.998;4.754;2023-04-29T01:26:24;12.80;99.90
33715;DHT22;20043;50.998;4.754;2023-04-29T01:34:09;12.70;99.90
33715;DHT22;20043;50.998;4.754;2023-04-29T01:36:44;12.60;99.90
33715;DHT22;20043;50.998;4.754;2023-04-29T01:44:46;12.50;99.90
33715;DHT22;20043;50.998;4.754;2023-04-29T01:47:13;12.40;99.90
33715;DHT22;20043;50.998;4.754;2023-04-29T01:49:39;12.20;99.90
33715;DHT22;20043;50.998;4.754;2023-04-29T01:52:05;12.00;99.90
33715;DHT22;20043;50.998;4.754;2023-04-29T01:54:34;12.00;99.90
33715;DHT22;20043;50.998;4.754;2023-04-29T01:57:02;12.00;99.90
33715;DHT22;20043;50.998;4.754;2023-04-29T01:59:28;12.10;99.90
33715;DHT22;20043;50.998;4.754;2023-04-29T02:01:55;12.10;99.90
33715;DHT22;20043;50.998;4.754;2023-04-29T02:04:23;11.60;99.90
33715;DHT22;20043;50.998;4.754;2023-04-29T02:06:49;11.70;99.90
33715;DHT22;20043;50.998;4.754;2023-04-29T02:09:16;11.80;99.90
33715;DHT22;20043;50.998;4.754;2023-04-29T02:11:42;12.00;99.90
33715;DHT22;20043;50.998;4.754;2023-04-29T02:14:07;12.00;99.90
33715;DHT22;20043;50.998;4.754;2023-04-29T02:16:33;12.20;99.90
33715;DHT22;20043;50.998;4.754;2023-04-29T02:18:59;12.20;99.90
33715;DHT22;20043;50.998;4.754;2023-04-29T02:21:24;12.20;99.90
33715;DHT22;20043;50.998;4.754;2023-04-29T02:23:51;12.10;99.90
33715;DHT22;20043;50.998;4.754;2023-04-29T02:26:18;12.00;99.90
33715;DHT22;20043;50.998;4.754;2023-04-29T02:28:44;11.80;99.90
33715;DHT22;20043;50.998;4.754;2023-04-29T02:31:10;11.50;99.90
33715;DHT22;20043;50.998;4.754;2023-04-29T02:33:35;11.60;99.90
33715;DHT22;20043;50.998;4.754;2023-04-29T02:36:01;11.70;99.90
33715;DHT22;20043;50.998;4.754;2023-04-29T02:38:27;11.50;99.90
33715;DHT22;20043;50.998;4.754;2023-04-29T02:40:52;11.40;99.90
33715;DHT22;20043;50.998;4.754;2023-04-29T02:43:18;11.60;99.90
33715;DHT22;20043;50.998;4.754;2023-04-29T02:45:43;11.70;99.90
33715;DHT22;20043;50.998;4.754;2023-04-29T02:48:09;11.90;99.90
33715;DHT22;20043;50.998;4.754;2023-04-29T02:50:35;12.00;99.90
33715;DHT22;20043;50.998;4.754;2023-04-29T02:53:00;11.90;99.90
33715;DHT22;20043;50.998;4.754;2023-04-29T02:55:26;11.80;99.90
33715;DHT22;20043;50.998;4.754;2023-04-29T02:57:52;11.80;99.90
33715;DHT22;20043;50.998;4.754;2023-04-29T03:00:17;11.80;99.90
33715;DHT22;20043;50.998;4.754;2023-04-29T03:02:43;12.00;99.90
33715;DHT22;20043;50.998;4.754;2023-04-29T03:05:09;12.00;99.90
33715;DHT22;20043;50.998;4.754;2023-04-29T03:07:35;12.00;99.90
33715;DHT22;20043;50.998;4.754;2023-04-29T03:10:01;12.00;99.90
33715;DHT22;20043;50.998;4.754;2023-04-29T03:12:26;12.00;99.90
33715;DHT22;20043;50.998;4.754;2023-04-29T03:14:52;12.10;99.90
33715;DHT22;20043;50.998;4.754;2023-04-29T03:17:18;12.10;99.90
33715;DHT22;20043;50.998;4.754;2023-04-29T03:19:43;12.10;99.90
33715;DHT22;20043;50.998;4.754;2023-04-29T03:22:09;12.20;99.90
33715;DHT22;20043;50.998;4.754;2023-04-29T03:24:36;12.20;99.90
33715;DHT22;20043;50.998;4.754;2023-04-29T03:27:02;12.20;99.90
33715;DHT22;20043;50.998;4.754;2023-04-29T03:29:29;12.20;99.90
33715;DHT22;20043;50.998;4.754;2023-04-29T03:31:54;12.20;99.90
33715;DHT22;20043;50.998;4.754;2023-04-29T03:34:21;12.20;99.90
33715;DHT22;20043;50.998;4.754;2023-04-29T03:36:47;12.20;99.90
33715;DHT22;20043;50.998;4.754;2023-04-29T03:39:12;12.30;99.90
33715;DHT22;20043;50.998;4.754;2023-04-29T03:41:38;12.30;99.90
33715;DHT22;20043;50.998;4.754;2023-04-29T03:44:04;12.20;99.90
33715;DHT22;20043;50.998;4.754;2023-04-29T03:46:30;12.30;99.90
33715;DHT22;20043;50.998;4.754;2023-04-29T03:48:56;12.30;99.90
33715;DHT22;20043;50.998;4.754;2023-04-29T03:51:23;12.30;99.90
33715;DHT22;20043;50.998;4.754;2023-04-29T03:53:48;12.30;99.90
33715;DHT22;20043;50.998;4.754;2023-04-29T03:56:14;12.30;99.90
33715;DHT22;20043;50.998;4.754;2023-04-29T03:58:40;12.20;99.90
33715;DHT22;20043;50.998;4.754;2023-04-29T04:01:06;12.00;99.90
33715;DHT22;20043;50.998;4.754;2023-04-29T04:03:32;12.10;99.90
33715;DHT22;20043;50.998;4.754;2023-04-29T04:05:57;12.20;99.90
33715;DHT22;20043;50.998;4.754;2023-04-29T04:08:23;12.10;99.90
33715;DHT22;20043;50.998;4.754;2023-04-29T04:10:48;12.20;99.90
33715;DHT22;20043;50.998;4.754;2023-04-29T04:13:14;12.20;99.90
33715;DHT22;20043;50.998;4.754;2023-04-29T04:15:40;12.20;99.90
33715;DHT22;20043;50.998;4.754;2023-04-29T04:18:06;12.20;99.90
33715;DHT22;20043;50.998;4.754;2023-04-29T04:20:35;12.30;99.90
33715;DHT22;20043;50.998;4.754;2023-04-29T04:23:00;12.30;99.90
33715;DHT22;20043;50.998;4.754;2023-04-29T04:25:26;12.30;99.90
33715;DHT22;20043;50.998;4.754;2023-04-29T04:27:52;12.20;99.90
33715;DHT22;20043;50.998;4.754;2023-04-29T04:30:18;12.10;99.90
33715;DHT22;20043;50.998;4.754;2023-04-29T04:32:44;12.00;99.90
33715;DHT22;20043;50.998;4.754;2023-04-29T04:35:10;12.00;99.90
33715;DHT22;20043;50.998;4.754;2023-04-29T04:37:36;12.00;99.90
33715;DHT22;20043;50.998;4.754;2023-04-29T04:40:02;12.10;99.90
33715;DHT22;20043;50.998;4.754;2023-04-29T04:42:28;12.10;99.90
33715;DHT22;20043;50.998;4.754;2023-04-29T04:44:53;12.10;99.90
33715;DHT22;20043;50.998;4.754;2023-04-29T04:47:19;12.10;99.90
33715;DHT22;20043;50.998;4.754;2023-04-29T04:49:45;11.90;99.90
33715;DHT22;20043;50.998;4.754;2023-04-29T04:52:11;11.80;99.90
33715;DHT22;20043;50.998;4.754;2023-04-29T04:54:36;11.70;99.90
33715;DHT22;20043;50.998;4.754;2023-04-29T04:57:02;11.50;99.90
33715;DHT22;20043;50.998;4.754;2023-04-29T04:59:30;11.60;99.90
33715;DHT22;20043;50.998;4.754;2023-04-29T05:01:56;11.50;99.90
33715;DHT22;20043;50.998;4.754;2023-04-29T05:04:22;11.40;99.90
33715;DHT22;20043;50.998;4.754;2023-04-29T05:06:47;11.60;99.90
33715;DHT22;20043;50.998;4.754;2023-04-29T05:09:13;11.60;99.90
33715;DHT22;20043;50.998;4.754;2023-04-29T05:11:38;11.70;99.90
33715;DHT22;20043;50.998;4.754;2023-04-29T05:14:04;11.70;99.90
33715;DHT22;20043;50.998;4.754;2023-04-29T05:16:30;11.90;99.90
33715;DHT22;20043;50.998;4.754;2023-04-29T05:18:56;12.00;99.90
33715;DHT22;20043;50.998;4.754;2023-04-29T05:21:21;12.10;99.90
33715;DHT22;20043;50.998;4.754;2023-04-29T05:23:47;12.20;99.90
33715;DHT22;20043;50.998;4.754;2023-04-29T05:26:13;12.20;99.90
33715;DHT22;20043;50.998;4.754;2023-04-29T05:28:38;12.10;99.90
33715;DHT22;20043;50.998;4.754;2023-04-29T05:31:04;11.80;99.90
33715;DHT22;20043;50.998;4.754;2023-04-29T05:33:30;11.80;99.90
33715;DHT22;20043;50.998;4.754;2023-04-29T05:35:56;11.80;99.90
33715;DHT22;20043;50.998;4.754;2023-04-29T05:38:21;11.70;99.90
33715;DHT22;20043;50.998;4.754;2023-04-29T05:40:56;11.80;99.90
33715;DHT22;20043;50.998;4.754;2023-04-29T05:43:21;11.70;99.90
33715;DHT22;20043;50.998;4.754;2023-04-29T05:45:47;11.60;99.90
33715;DHT22;20043;50.998;4.754;2023-04-29T05:48:13;11.60;99.90
33715;DHT22;20043;50.998;4.754;2023-04-29T05:50:38;11.70;99.90
33715;DHT22;20043;50.998;4.754;2023-04-29T05:53:04;11.30;99.90
33715;DHT22;20043;50.998;4.754;2023-04-29T05:55:30;11.50;99.90
33715;DHT22;20043;50.998;4.754;2023-04-29T05:57:55;11.60;99.90
33715;DHT22;20043;50.998;4.754;2023-04-29T06:00:21;11.60;99.90
33715;DHT22;20043;50.998;4.754;2023-04-29T06:02:47;11.70;99.90
33715;DHT22;20043;50.998;4.754;2023-04-29T06:05:13;11.90;99.90
33715;DHT22;20043;50.998;4.754;2023-04-29T06:07:40;12.10;99.90
33715;DHT22;20043;50.998;4.754;2023-04-29T06:10:07;11.90;99.90
33715;DHT22;20043;50.998;4.754;2023-04-29T06:12:33;11.90;99.90
33715;DHT22;20043;50.998;4.754;2023-04-29T06:14:59;12.00;99.90
33715;DHT22;20043;50.998;4.754;2023-04-29T06:17:24;11.80;99.90
33715;DHT22;20043;50.998;4.754;2023-04-29T06:19:56;11.70;99.90
33715;DHT22;20043;50.998;4.754;2023-04-29T06:22:22;11.60;99.90
33715;DHT22;20043;50.998;4.754;2023-04-29T06:24:47;11.60;99.90
33715;DHT22;20043;50.998;4.754;2023-04-29T06:27:17;11.70;99.90
33715;DHT22;20043;50.998;4.754;2023-04-29T06:29:42;11.80;99.90
33715;DHT22;20043;50.998;4.754;2023-04-29T06:32:08;11.80;99.90
33715;DHT22;20043;50.998;4.754;2023-04-29T06:34:34;11.80;99.90
33715;DHT22;20043;50.998;4.754;2023-04-29T06:37:00;11.90;99.90
33715;DHT22;20043;50.998;4.754;2023-04-29T06:39:26;11.90;99.90
33715;DHT22;20043;50.998;4.754;2023-04-29T06:41:51;11.90;99.90
33715;DHT22;20043;50.998;4.754;2023-04-29T06:44:17;12.00;99.90
33715;DHT22;20043;50.998;4.754;2023-04-29T06:46:43;12.10;99.90
33715;DHT22;20043;50.998;4.754;2023-04-29T06:49:09;12.00;99.90
33715;DHT22;20043;50.998;4.754;2023-04-29T06:51:36;12.10;99.90
33715;DHT22;20043;50.998;4.754;2023-04-29T06:54:02;12.20;99.90
33715;DHT22;20043;50.998;4.754;2023-04-29T06:56:28;12.10;99.90
33715;DHT22;20043;50.998;4.754;2023-04-29T06:58:54;12.00;99.90
33715;DHT22;20043;50.998;4.754;2023-04-29T07:01:20;11.90;99.90
33715;DHT22;20043;50.998;4.754;2023-04-29T07:03:45;11.90;99.90
33715;DHT22;20043;50.998;4.754;2023-04-29T07:06:11;12.10;99.90
33715;DHT22;20043;50.998;4.754;2023-04-29T07:08:37;12.20;99.90
33715;DHT22;20043;50.998;4.754;2023-04-29T07:11:02;12.30;99.90
33715;DHT22;20043;50.998;4.754;2023-04-29T07:13:28;12.20;99.90
33715;DHT22;20043;50.998;4.754;2023-04-29T07:15:54;12.30;99.90
33715;DHT22;20043;50.998;4.754;2023-04-29T07:18:20;12.40;99.90
33715;DHT22;20043;50.998;4.754;2023-04-29T07:20:46;12.30;99.90
33715;DHT22;20043;50.998;4.754;2023-04-29T07:23:12;12.30;99.90
33715;DHT22;20043;50.998;4.754;2023-04-29T07:25:39;12.50;99.90
33715;DHT22;20043;50.998;4.754;2023-04-29T07:28:05;12.50;99.90
33715;DHT22;20043;50.998;4.754;2023-04-29T07:30:31;12.50;99.90
33715;DHT22;20043;50.998;4.754;2023-04-29T07:32:56;12.40;99.90
33715;DHT22;20043;50.998;4.754;2023-04-29T07:35:22;12.50;99.90
33715;DHT22;20043;50.998;4.754;2023-04-29T07:37:48;12.70;99.90
33715;DHT22;20043;50.998;4.754;2023-04-29T07:40:13;12.70;99.90
33715;DHT22;20043;50.998;4.754;2023-04-29T07:42:39;12.80;99.90
33715;DHT22;20043;50.998;4.754;2023-04-29T07:45:05;12.60;99.90
33715;DHT22;20043;50.998;4.754;2023-04-29T07:47:31;12.70;99.90
33715;DHT22;20043;50.998;4.754;2023-04-29T07:49:56;12.70;99.90
33715;DHT22;20043;50.998;4.754;2023-04-29T07:52:22;12.80;99.90
33715;DHT22;20043;50.998;4.754;2023-04-29T07:54:48;12.90;99.90
33715;DHT22;20043;50.998;4.754;2023-04-29T07:57:13;13.00;99.90
33715;DHT22;20043;50.998;4.754;2023-04-29T07:59:39;13.00;99.90
33715;DHT22;20043;50.998;4.754;2023-04-29T08:02:05;13.10;99.90
33715;DHT22;20043;50.998;4.754;2023-04-29T08:04:31;12.80;99.90
33715;DHT22;20043;50.998;4.754;2023-04-29T08:06:56;12.80;99.90
33715;DHT22;20043;50.998;4.754;2023-04-29T08:09:22;13.00;99.90
33715;DHT22;20043;50.998;4.754;2023-04-29T08:11:48;12.90;99.90
33715;DHT22;20043;50.998;4.754;2023-04-29T08:14:20;13.00;99.90
33715;DHT22;20043;50.998;4.754;2023-04-29T08:16:45;12.70;99.90
33715;DHT22;20043;50.998;4.754;2023-04-29T08:19:11;12.60;99.90
33715;DHT22;20043;50.998;4.754;2023-04-29T08:21:37;12.70;99.90
33715;DHT22;20043;50.998;4.754;2023-04-29T08:24:02;12.70;99.90
33715;DHT22;20043;50.998;4.754;2023-04-29T08:26:28;12.70;99.90
33715;DHT22;20043;50.998;4.754;2023-04-29T08:28:54;12.60;99.90
33715;DHT22;20043;50.998;4.754;2023-04-29T08:31:21;12.70;99.90
33715;DHT22;20043;50.998;4.754;2023-04-29T08:33:47;12.60;99.90
33715;DHT22;20043;50.998;4.754;2023-04-29T08:36:13;12.40;99.90
33715;DHT22;20043;50.998;4.754;2023-04-29T08:38:38;12.60;99.90
33715;DHT22;20043;50.998;4.754;2023-04-29T08:41:07;12.80;99.90
33715;DHT22;20043;50.998;4.754;2023-04-29T08:43:35;12.90;99.90
33715;DHT22;20043;50.998;4.754;2023-04-29T08:46:02;12.90;99.90
33715;DHT22;20043;50.998;4.754;2023-04-29T08:48:29;13.00;99.90
33715;DHT22;20043;50.998;4.754;2023-04-29T08:50:55;13.10;99.90
33715;DHT22;20043;50.998;4.754;2023-04-29T08:53:22;13.30;99.90
33715;DHT22;20043;50.998;4.754;2023-04-29T08:55:49;13.30;99.90
33715;DHT22;20043;50.998;4.754;2023-04-29T08:58:15;13.50;99.90
33715;DHT22;20043;50.998;4.754;2023-04-29T09:00:42;13.60;99.90
33715;DHT22;20043;50.998;4.754;2023-04-29T09:03:26;13.50;99.90
33715;DHT22;20043;50.998;4.754;2023-04-29T09:05:55;13.40;99.90
33715;DHT22;20043;50.998;4.754;2023-04-29T09:08:23;13.40;99.90
33715;DHT22;20043;50.998;4.754;2023-04-29T09:10:52;13.60;99.90
33715;DHT22;20043;50.998;4.754;2023-04-29T09:13:31;13.70;99.90
33715;DHT22;20043;50.998;4.754;2023-04-29T09:15:57;13.90;99.90
33715;DHT22;20043;50.998;4.754;2023-04-29T09:18:43;13.80;99.90
33715;DHT22;20043;50.998;4.754;2023-04-29T09:21:20;13.90;99.90
33715;DHT22;20043;50.998;4.754;2023-04-29T09:23:53;13.90;99.90
33715;DHT22;20043;50.998;4.754;2023-04-29T09:26:20;13.90;99.90
33715;DHT22;20043;50.998;4.754;2023-04-29T09:28:46;13.80;99.90
33715;DHT22;20043;50.998;4.754;2023-04-29T09:31:14;13.80;99.90
33715;DHT22;20043;50.998;4.754;2023-04-29T09:33:53;13.90;99.90
33715;DHT22;20043;50.998;4.754;2023-04-29T09:36:51;14.00;99.90
33715;DHT22;20043;50.998;4.754;2023-04-29T09:39:22;13.90;99.90
33715;DHT22;20043;50.998;4.754;2023-04-29T09:44:24;14.30;99.90
33715;DHT22;20043;50.998;4.754;2023-04-29T09:47:05;14.60;99.90
33715;DHT22;20043;50.998;4.754;2023-04-29T09:52:01;14.80;99.90
33715;DHT22;20043;50.998;4.754;2023-04-29T09:54:29;14.80;99.90
33715;DHT22;20043;50.998;4.754;2023-04-29T09:56:57;15.00;99.90
33715;DHT22;20043;50.998;4.754;2023-04-29T09:59:23;14.80;99.90
33715;DHT22;20043;50.998;4.754;2023-04-29T10:01:52;14.90;99.90
33715;DHT22;20043;50.998;4.754;2023-04-29T10:04:19;14.70;99.90
33715;DHT22;20043;50.998;4.754;2023-04-29T10:06:48;14.90;99.90
33715;DHT22;20043;50.998;4.754;2023-04-29T10:09:15;15.20;99.90
33715;DHT22;20043;50.998;4.754;2023-04-29T10:11:42;15.40;99.90
33715;DHT22;20043;50.998;4.754;2023-04-29T10:14:12;15.50;99.90
33715;DHT22;20043;50.998;4.754;2023-04-29T10:19:17;15.10;99.90
33715;DHT22;20043;50.998;4.754;2023-04-29T10:21:44;15.00;99.90
33715;DHT22;20043;50.998;4.754;2023-04-29T10:24:12;14.80;99.90
33715;DHT22;20043;50.998;4.754;2023-04-29T10:26:41;15.00;99.90
33715;DHT22;20043;50.998;4.754;2023-04-29T10:29:07;15.00;99.90
33715;DHT22;20043;50.998;4.754;2023-04-29T10:31:35;15.00;99.90
33715;DHT22;20043;50.998;4.754;2023-04-29T10:34:01;15.20;99.90
33715;DHT22;20043;50.998;4.754;2023-04-29T10:36:28;15.00;99.90
33715;DHT22;20043;50.998;4.754;2023-04-29T10:38:58;15.00;99.90
33715;DHT22;20043;50.998;4.754;2023-04-29T10:41:33;14.90;99.90
33715;DHT22;20043;50.998;4.754;2023-04-29T10:43:59;14.90;99.90
33715;DHT22;20043;50.998;4.754;2023-04-29T10:46:25;15.20;99.90
33715;DHT22;20043;50.998;4.754;2023-04-29T10:49:01;15.30;99.90
33715;DHT22;20043;50.998;4.754;2023-04-29T10:51:48;15.50;99.90
33715;DHT22;20043;50.998;4.754;2023-04-29T10:54:15;15.60;99.90
33715;DHT22;20043;50.998;4.754;2023-04-29T10:56:47;15.70;99.90
33715;DHT22;20043;50.998;4.754;2023-04-29T10:59:20;15.60;99.90
33715;DHT22;20043;50.998;4.754;2023-04-29T11:01:52;15.40;99.90
33715;DHT22;20043;50.998;4.754;2023-04-29T11:04:21;15.20;99.90
33715;DHT22;20043;50.998;4.754;2023-04-29T11:06:52;15.20;99.90
33715;DHT22;20043;50.998;4.754;2023-04-29T11:09:29;15.40;99.90
33715;DHT22;20043;50.998;4.754;2023-04-29T11:11:55;15.50;99.90
33715;DHT22;20043;50.998;4.754;2023-04-29T11:14:40;15.50;99.90
33715;DHT22;20043;50.998;4.754;2023-04-29T11:17:10;15.50;99.90
33715;DHT22;20043;50.998;4.754;2023-04-29T11:19:49;15.40;99.90
33715;DHT22;20043;50.998;4.754;2023-04-29T11:25:02;15.40;99.90
33715;DHT22;20043;50.998;4.754;2023-04-29T11:27:36;15.70;99.90
33715;DHT22;20043;50.998;4.754;2023-04-29T11:30:04;15.90;99.90
33715;DHT22;20043;50.998;4.754;2023-04-29T11:32:35;16.00;99.90
33715;DHT22;20043;50.998;4.754;2023-04-29T11:35:11;16.10;99.90
33715;DHT22;20043;50.998;4.754;2023-04-29T11:37:37;15.90;99.90
33715;DHT22;20043;50.998;4.754;2023-04-29T11:40:04;16.10;99.90
33715;DHT22;20043;50.998;4.754;2023-04-29T11:42:54;16.40;99.90
33715;DHT22;20043;50.998;4.754;2023-04-29T11:45:19;16.60;99.90
33715;DHT22;20043;50.998;4.754;2023-04-29T11:47:46;16.80;99.90
33715;DHT22;20043;50.998;4.754;2023-04-29T11:50:13;16.90;99.90
33715;DHT22;20043;50.998;4.754;2023-04-29T11:52:41;17.00;99.90
33715;DHT22;20043;50.998;4.754;2023-04-29T11:55:10;17.10;99.90
33715;DHT22;20043;50.998;4.754;2023-04-29T11:57:37;17.10;99.90
33715;DHT22;20043;50.998;4.754;2023-04-29T12:00:03;16.70;99.90
33715;DHT22;20043;50.998;4.754;2023-04-29T12:02:31;16.80;99.90
33715;DHT22;20043;50.998;4.754;2023-04-29T12:04:57;16.80;99.90
33715;DHT22;20043;50.998;4.754;2023-04-29T12:07:25;16.80;99.90
33715;DHT22;20043;50.998;4.754;2023-04-29T12:09:51;16.60;99.90
33715;DHT22;20043;50.998;4.754;2023-04-29T12:12:17;16.70;99.90
33715;DHT22;20043;50.998;4.754;2023-04-29T12:14:43;16.70;99.90
33715;DHT22;20043;50.998;4.754;2023-04-29T12:17:09;16.60;99.90
33715;DHT22;20043;50.998;4.754;2023-04-29T12:19:36;16.40;99.90
33715;DHT22;20043;50.998;4.754;2023-04-29T12:22:04;16.50;99.90
33715;DHT22;20043;50.998;4.754;2023-04-29T12:24:36;16.60;99.90
33715;DHT22;20043;50.998;4.754;2023-04-29T12:27:02;16.70;99.90
33715;DHT22;20043;50.998;4.754;2023-04-29T12:29:30;16.90;99.90
33715;DHT22;20043;50.998;4.754;2023-04-29T12:31:56;16.90;99.90
33715;DHT22;20043;50.998;4.754;2023-04-29T12:34:29;16.90;99.90
33715;DHT22;20043;50.998;4.754;2023-04-29T12:36:56;17.00;99.90
33715;DHT22;20043;50.998;4.754;2023-04-29T12:39:23;16.70;99.90
33715;DHT22;20043;50.998;4.754;2023-04-29T12:41:49;16.70;99.90
33715;DHT22;20043;50.998;4.754;2023-04-29T12:44:18;16.70;99.90
33715;DHT22;20043;50.998;4.754;2023-04-29T12:46:44;16.60;99.90
33715;DHT22;20043;50.998;4.754;2023-04-29T12:49:10;16.60;99.90
33715;DHT22;20043;50.998;4.754;2023-04-29T12:51:36;16.50;99.90
33715;DHT22;20043;50.998;4.754;2023-04-29T12:54:03;16.20;99.90
33715;DHT22;20043;50.998;4.754;2023-04-29T12:56:32;16.00;99.90
33715;DHT22;20043;50.998;4.754;2023-04-29T12:59:05;16.20;99.90
33715;DHT22;20043;50.998;4.754;2023-04-29T13:01:32;16.40;99.90
33715;DHT22;20043;50.998;4.754;2023-04-29T13:03:57;16.60;99.90
33715;DHT22;20043;50.998;4.754;2023-04-29T13:06:23;16.70;99.90
33715;DHT22;20043;50.998;4.754;2023-04-29T13:08:49;16.70;99.90
33715;DHT22;20043;50.998;4.754;2023-04-29T13:11:16;16.60;99.90
33715;DHT22;20043;50.998;4.754;2023-04-29T13:13:41;16.50;99.90
33715;DHT22;20043;50.998;4.754;2023-04-29T13:16:07;16.50;99.90
33715;DHT22;20043;50.998;4.754;2023-04-29T13:18:33;16.40;99.90
33715;DHT22;20043;50.998;4.754;2023-04-29T13:20:58;16.50;99.90
33715;DHT22;20043;50.998;4.754;2023-04-29T13:23:24;16.70;99.90
33715;DHT22;20043;50.998;4.754;2023-04-29T13:25:50;16.90;99.90
33715;DHT22;20043;50.998;4.754;2023-04-29T13:28:16;17.00;99.90
33715;DHT22;20043;50.998;4.754;2023-04-29T13:30:41;17.20;99.90
33715;DHT22;20043;50.998;4.754;2023-04-29T13:33:07;17.40;99.90
33715;DHT22;20043;50.998;4.754;2023-04-29T13:35:32;17.40;99.90
33715;DHT22;20043;50.998;4.754;2023-04-29T13:38:00;17.30;99.90
33715;DHT22;20043;50.998;4.754;2023-04-29T13:40:26;17.40;99.90
33715;DHT22;20043;50.998;4.754;2023-04-29T13:42:52;16.70;99.90
33715;DHT22;20043;50.998;4.754;2023-04-29T13:45:18;16.70;99.90
33715;DHT22;20043;50.998;4.754;2023-04-29T13:47:43;16.80;99.90
33715;DHT22;20043;50.998;4.754;2023-04-29T13:50:09;16.90;99.90
33715;DHT22;20043;50.998;4.754;2023-04-29T13:52:35;16.90;99.90
33715;DHT22;20043;50.998;4.754;2023-04-29T13:55:01;17.00;99.90
33715;DHT22;20043;50.998;4.754;2023-04-29T13:57:26;17.20;99.90
33715;DHT22;20043;50.998;4.754;2023-04-29T13:59:52;17.30;99.90
33715;DHT22;20043;50.998;4.754;2023-04-29T14:02:20;17.30;99.90
33715;DHT22;20043;50.998;4.754;2023-04-29T14:04:46;17.20;99.90
33715;DHT22;20043;50.998;4.754;2023-04-29T14:07:12;17.00;99.90
33715;DHT22;20043;50.998;4.754;2023-04-29T14:09:38;17.00;99.90
33715;DHT22;20043;50.998;4.754;2023-04-29T14:12:04;17.20;99.90
33715;DHT22;20043;50.998;4.754;2023-04-29T14:14:30;17.30;99.90
33715;DHT22;20043;50.998;4.754;2023-04-29T14:16:56;17.20;99.90
33715;DHT22;20043;50.998;4.754;2023-04-29T14:19:29;17.40;99.90
33715;DHT22;20043;50.998;4.754;2023-04-29T14:21:54;17.50;99.90
33715;DHT22;20043;50.998;4.754;2023-04-29T14:24:20;17.50;99.90
33715;DHT22;20043;50.998;4.754;2023-04-29T14:26:46;17.50;99.90
33715;DHT22;20043;50.998;4.754;2023-04-29T14:29:12;17.60;99.90
33715;DHT22;20043;50.998;4.754;2023-04-29T14:31:38;17.80;99.90
33715;DHT22;20043;50.998;4.754;2023-04-29T14:34:10;17.90;99.90
33715;DHT22;20043;50.998;4.754;2023-04-29T14:36:44;18.00;99.90
33715;DHT22;20043;50.998;4.754;2023-04-29T14:39:11;18.00;99.90
33715;DHT22;20043;50.998;4.754;2023-04-29T14:41:37;18.00;99.90
33715;DHT22;20043;50.998;4.754;2023-04-29T14:44:02;18.00;99.90
33715;DHT22;20043;50.998;4.754;2023-04-29T14:46:29;17.90;99.90
33715;DHT22;20043;50.998;4.754;2023-04-29T14:48:55;17.80;99.90
33715;DHT22;20043;50.998;4.754;2023-04-29T14:51:21;17.80;99.90
33715;DHT22;20043;50.998;4.754;2023-04-29T14:53:47;17.70;99.90
33715;DHT22;20043;50.998;4.754;2023-04-29T14:56:12;17.60;99.90
33715;DHT22;20043;50.998;4.754;2023-04-29T14:58:38;17.90;99.90
33715;DHT22;20043;50.998;4.754;2023-04-29T15:01:03;18.10;99.90
33715;DHT22;20043;50.998;4.754;2023-04-29T15:03:29;18.10;99.90
33715;DHT22;20043;50.998;4.754;2023-04-29T15:05:56;18.10;99.90
33715;DHT22;20043;50.998;4.754;2023-04-29T15:08:22;18.10;99.90
33715;DHT22;20043;50.998;4.754;2023-04-29T15:10:47;17.90;99.90
33715;DHT22;20043;50.998;4.754;2023-04-29T15:13:14;18.00;99.90
33715;DHT22;20043;50.998;4.754;2023-04-29T15:15:40;17.90;99.90
33715;DHT22;20043;50.998;4.754;2023-04-29T15:18:05;17.90;99.90
33715;DHT22;20043;50.998;4.754;2023-04-29T15:20:33;18.00;99.90
33715;DHT22;20043;50.998;4.754;2023-04-29T15:22:59;17.70;99.90
33715;DHT22;20043;50.998;4.754;2023-04-29T15:25:25;17.90;99.90
33715;DHT22;20043;50.998;4.754;2023-04-29T15:27:51;18.10;99.90
33715;DHT22;20043;50.998;4.754;2023-04-29T15:30:16;18.10;99.90
33715;DHT22;20043;50.998;4.754;2023-04-29T15:32:43;18.00;99.90
33715;DHT22;20043;50.998;4.754;2023-04-29T15:35:09;18.10;99.90
33715;DHT22;20043;50.998;4.754;2023-04-29T15:37:35;18.10;99.90
33715;DHT22;20043;50.998;4.754;2023-04-29T15:40:01;17.80;99.90
33715;DHT22;20043;50.998;4.754;2023-04-29T15:42:28;17.80;99.90
33715;DHT22;20043;50.998;4.754;2023-04-29T15:44:54;17.80;99.90
33715;DHT22;20043;50.998;4.754;2023-04-29T15:47:19;17.70;99.90
33715;DHT22;20043;50.998;4.754;2023-04-29T15:49:46;17.60;99.90
33715;DHT22;20043;50.998;4.754;2023-04-29T15:52:11;17.60;99.90